Time;durP1;ratioP1;P1;durP2;ratioP2;P2;SDS_P1;SDS_P2;PMS_P1;PMS_P2;Temp;Humidity;BMP_temperature;BMP_pressure;BME280_temperature;BME280_humidity;BME280_pressure;Samples;Min_cycle;Max_cycle;Signal;HPM_P1;HPM_P2
2022/03/18 00:00:36;;;;;;;;;;;8.40;99.90;;;;;;4302918;33;44623;-84
2022/03/18 00:03:03;;;;;;;;;;;8.40;99.90;;;;;;4302635;33;43613;-83
2022/03/18 00:05:32;;;;;;;;;;;8.30;99.90;;;;;;4302535;33;42978;-84
2022/03/18 00:07:59;;;;;;;;;;;8.30;99.90;;;;;;4302703;33;45746;-85
2022/03/18 00:10:26;;;;;;;;;;;8.30;99.90;;;;;;4302682;33;43123;-84
2022/03/18 00:12:53;;;;;;;;;;;8.30;99.90;;;;;;4302908;33;45293;-83
2022/03/18 00:15:23;;;;;;;;;;;8.30;99.90;;;;;;4315918;33;43671;-84
2022/03/18 00:17:50;;;;;;;;;;;8.30;99.90;;;;;;4302912;33;44145;-84
2022/03/18 00:20:18;;;;;;;;;;;8.30;99.90;;;;;;4302768;33;44090;-84
2022/03/18 00:22:46;;;;;;;;;;;8.30;99.90;;;;;;4302366;33;43838;-83
2022/03/18 00:25:14;;;;;;;;;;;8.30;99.90;;;;;;4301692;33;45827;-84
2022/03/18 00:27:45;;;;;;;;;;;8.30;99.90;;;;;;4302871;33;44081;-84
2022/03/18 00:30:14;;;;;;;;;;;8.20;99.90;;;;;;4302794;33;44635;-84
2022/03/18 00:32:41;;;;;;;;;;;8.20;99.90;;;;;;4302698;33;43503;-84
2022/03/18 00:35:28;;;;;;;;;;;8.20;99.90;;;;;;4305113;33;45306;-84
2022/03/18 00:37:56;;;;;;;;;;;8.20;99.90;;;;;;4315565;33;42309;-85
2022/03/18 00:40:23;;;;;;;;;;;8.10;99.90;;;;;;4302302;33;43834;-84
2022/03/18 00:42:50;;;;;;;;;;;8.20;99.90;;;;;;4315252;33;43279;-83
2022/03/18 00:45:17;;;;;;;;;;;8.20;99.90;;;;;;4315721;33;43516;-84
2022/03/18 00:53:21;;;;;;;;;;;8.10;99.90;;;;;;4301181;33;44074;-84
2022/03/18 00:55:48;;;;;;;;;;;8.10;99.90;;;;;;4302447;33;42813;-83
2022/03/18 00:58:15;;;;;;;;;;;8.10;99.90;;;;;;4302738;33;43689;-84
2022/03/18 01:00:42;;;;;;;;;;;8.10;99.90;;;;;;4302643;33;43388;-84
2022/03/18 01:03:10;;;;;;;;;;;8.10;99.90;;;;;;4302015;33;44198;-85
2022/03/18 01:05:37;;;;;;;;;;;8.10;99.90;;;;;;4302300;33;44196;-83
2022/03/18 01:08:04;;;;;;;;;;;8.00;99.90;;;;;;4302119;33;42941;-84
2022/03/18 01:10:32;;;;;;;;;;;8.10;99.90;;;;;;4302273;33;42753;-83
2022/03/18 01:12:59;;;;;;;;;;;8.00;99.90;;;;;;4302488;33;44806;-83
2022/03/18 01:15:26;;;;;;;;;;;8.00;99.90;;;;;;4302712;33;43205;-84
2022/03/18 01:17:53;;;;;;;;;;;8.00;99.90;;;;;;4315128;33;42549;-84
2022/03/18 01:20:20;;;;;;;;;;;8.00;99.90;;;;;;4315225;33;43351;-84
2022/03/18 01:22:47;;;;;;;;;;;8.00;99.90;;;;;;4315557;33;43474;-84
2022/03/18 01:25:14;;;;;;;;;;;8.00;99.90;;;;;;4302189;33;43890;-84
2022/03/18 01:27:41;;;;;;;;;;;8.00;99.90;;;;;;4302412;33;43589;-84
2022/03/18 01:30:09;;;;;;;;;;;8.00;99.90;;;;;;4302365;33;42414;-83
2022/03/18 01:32:36;;;;;;;;;;;8.00;99.90;;;;;;4301869;33;43227;-84
2022/03/18 01:35:03;;;;;;;;;;;7.90;99.90;;;;;;4302012;33;42080;-84
2022/03/18 01:37:30;;;;;;;;;;;7.90;99.90;;;;;;4317359;33;44940;-84
2022/03/18 01:39:57;;;;;;;;;;;7.90;99.90;;;;;;4304771;33;43569;-83
2022/03/18 01:42:24;;;;;;;;;;;7.90;99.90;;;;;;4317930;33;43232;-84
2022/03/18 01:44:51;;;;;;;;;;;7.90;99.90;;;;;;4317999;33;44141;-84
2022/03/18 01:47:19;;;;;;;;;;;7.90;99.90;;;;;;4304722;33;44000;-84
2022/03/18 01:49:46;;;;;;;;;;;7.90;99.90;;;;;;4317792;33;43354;-85
2022/03/18 01:52:13;;;;;;;;;;;7.90;99.90;;;;;;4304651;33;42751;-84
2022/03/18 01:54:49;;;;;;;;;;;7.90;99.90;;;;;;4304702;33;44940;-84
2022/03/18 01:57:18;;;;;;;;;;;7.90;99.90;;;;;;4317378;33;44160;-84
2022/03/18 01:59:46;;;;;;;;;;;7.80;99.90;;;;;;4304221;33;44853;-84
2022/03/18 02:02:15;;;;;;;;;;;7.90;99.90;;;;;;4317391;33;44004;-84
2022/03/18 02:04:43;;;;;;;;;;;7.90;99.90;;;;;;4317179;33;43022;-84
2022/03/18 02:07:10;;;;;;;;;;;7.80;99.90;;;;;;4317297;33;42528;-84
2022/03/18 02:09:38;;;;;;;;;;;7.80;99.90;;;;;;4304090;33;42766;-83
2022/03/18 02:12:06;;;;;;;;;;;7.80;99.90;;;;;;4317632;33;43104;-84
2022/03/18 02:14:51;;;;;;;;;;;7.80;99.90;;;;;;4304477;33;43438;-84
2022/03/18 02:17:18;;;;;;;;;;;7.80;99.90;;;;;;4304662;33;44094;-84
2022/03/18 02:19:46;;;;;;;;;;;7.80;99.90;;;;;;4317196;33;43290;-84
2022/03/18 02:22:14;;;;;;;;;;;7.80;99.90;;;;;;4317301;33;44921;-84
2022/03/18 02:24:42;;;;;;;;;;;7.80;99.90;;;;;;4304289;33;43635;-84
2022/03/18 02:27:10;;;;;;;;;;;7.80;99.90;;;;;;4317018;33;43365;-84
2022/03/18 02:29:37;;;;;;;;;;;7.80;99.90;;;;;;4303833;33;43478;-84
2022/03/18 02:32:05;;;;;;;;;;;7.80;99.90;;;;;;4304336;33;44268;-84
2022/03/18 02:34:33;;;;;;;;;;;7.80;99.90;;;;;;4304033;33;44268;-83
2022/03/18 02:37:00;;;;;;;;;;;7.70;99.90;;;;;;4304173;33;43121;-83
2022/03/18 02:39:27;;;;;;;;;;;7.70;99.90;;;;;;4303554;33;44851;-84
2022/03/18 02:41:54;;;;;;;;;;;7.70;99.90;;;;;;4303725;33;43370;-85
2022/03/18 02:44:22;;;;;;;;;;;7.70;99.90;;;;;;4316713;33;43401;-84
2022/03/18 02:46:49;;;;;;;;;;;7.70;99.90;;;;;;4316385;33;45451;-84
2022/03/18 02:49:16;;;;;;;;;;;7.70;99.90;;;;;;4316692;33;44492;-84
2022/03/18 02:51:43;;;;;;;;;;;7.70;99.90;;;;;;4303989;33;44105;-84
2022/03/18 02:54:10;;;;;;;;;;;7.70;99.90;;;;;;4303753;33;45820;-84
2022/03/18 02:56:37;;;;;;;;;;;7.70;99.90;;;;;;4316520;33;46150;-84
2022/03/18 02:59:05;;;;;;;;;;;7.60;99.90;;;;;;4303827;33;43263;-84
2022/03/18 03:01:32;;;;;;;;;;;7.60;99.90;;;;;;4316335;33;43251;-83
2022/03/18 03:03:59;;;;;;;;;;;7.60;99.90;;;;;;4303335;33;42887;-84
2022/03/18 03:09:13;;;;;;;;;;;7.60;99.90;;;;;;4316746;33;43221;-84
2022/03/18 03:11:40;;;;;;;;;;;7.60;99.90;;;;;;4303221;33;44028;-84
2022/03/18 03:14:12;;;;;;;;;;;7.60;99.90;;;;;;4304079;33;44782;-83
2022/03/18 03:16:39;;;;;;;;;;;7.50;99.90;;;;;;4316385;33;43085;-84
2022/03/18 03:19:06;;;;;;;;;;;7.50;99.90;;;;;;4303570;33;43256;-85
2022/03/18 03:21:34;;;;;;;;;;;7.50;99.90;;;;;;4316408;33;43892;-84
2022/03/18 03:24:01;;;;;;;;;;;7.50;99.90;;;;;;4303331;33;43482;-84
2022/03/18 03:26:29;;;;;;;;;;;7.40;99.90;;;;;;4303361;33;43737;-84
2022/03/18 03:28:56;;;;;;;;;;;7.40;99.90;;;;;;4316787;33;43198;-84
2022/03/18 03:31:23;;;;;;;;;;;7.40;99.90;;;;;;4302917;33;45010;-84
2022/03/18 03:33:50;;;;;;;;;;;7.40;99.90;;;;;;4316537;33;43794;-84
2022/03/18 03:36:17;;;;;;;;;;;7.40;99.90;;;;;;4315961;33;41992;-84
2022/03/18 03:38:44;;;;;;;;;;;7.40;99.90;;;;;;4303235;33;43209;-84
2022/03/18 03:41:11;;;;;;;;;;;7.40;99.90;;;;;;4303288;33;44052;-84
2022/03/18 03:43:39;;;;;;;;;;;7.40;99.90;;;;;;4303082;33;42907;-84
2022/03/18 03:46:06;;;;;;;;;;;7.40;99.90;;;;;;4303107;33;44390;-84
2022/03/18 03:48:33;;;;;;;;;;;7.40;99.90;;;;;;4303152;33;44952;-84
2022/03/18 03:51:00;;;;;;;;;;;7.40;99.90;;;;;;4303079;33;43996;-84
2022/03/18 03:53:27;;;;;;;;;;;7.30;99.90;;;;;;4303014;33;43267;-84
2022/03/18 03:55:54;;;;;;;;;;;7.30;99.90;;;;;;4302974;33;42712;-85
2022/03/18 03:58:21;;;;;;;;;;;7.30;99.90;;;;;;4302537;33;45364;-84
2022/03/18 04:00:49;;;;;;;;;;;7.20;99.90;;;;;;4303044;33;42518;-84
2022/03/18 04:03:16;;;;;;;;;;;7.20;99.90;;;;;;4315559;33;43496;-84
2022/03/18 04:05:43;;;;;;;;;;;7.20;99.90;;;;;;4302576;33;44234;-83
2022/03/18 04:08:10;;;;;;;;;;;7.20;99.90;;;;;;4315907;33;43959;-84
2022/03/18 04:10:42;;;;;;;;;;;7.10;99.90;;;;;;4315703;33;43477;-83
2022/03/18 04:13:10;;;;;;;;;;;7.10;99.90;;;;;;4303146;33;44211;-84
2022/03/18 04:15:38;;;;;;;;;;;7.10;99.90;;;;;;4302477;33;43432;-84
2022/03/18 04:18:05;;;;;;;;;;;7.10;99.90;;;;;;4315592;33;43039;-84
2022/03/18 04:20:33;;;;;;;;;;;7.10;99.90;;;;;;4302493;33;44814;-84
2022/03/18 04:23:00;;;;;;;;;;;7.10;99.90;;;;;;4302793;33;42580;-83
2022/03/18 04:25:28;;;;;;;;;;;7.20;99.90;;;;;;4302653;33;44287;-83
2022/03/18 04:27:55;;;;;;;;;;;7.10;99.90;;;;;;4302857;33;43420;-83
2022/03/18 04:30:22;;;;;;;;;;;7.10;99.90;;;;;;4302299;33;43002;-84
2022/03/18 04:32:49;;;;;;;;;;;7.10;99.90;;;;;;4315885;33;44969;-84
2022/03/18 04:35:16;;;;;;;;;;;7.10;99.90;;;;;;4302635;33;42799;-84
2022/03/18 04:37:43;;;;;;;;;;;7.10;99.90;;;;;;4302422;33;44173;-84
2022/03/18 04:40:11;;;;;;;;;;;7.10;99.90;;;;;;4315766;33;43028;-84
2022/03/18 04:42:38;;;;;;;;;;;7.00;99.90;;;;;;4302221;33;45787;-84
2022/03/18 04:45:06;;;;;;;;;;;7.10;99.90;;;;;;4302666;33;44311;-84
2022/03/18 04:47:33;;;;;;;;;;;7.10;99.90;;;;;;4315355;33;45784;-84
2022/03/18 04:50:00;;;;;;;;;;;7.10;99.90;;;;;;4302474;33;43247;-84
2022/03/18 04:52:28;;;;;;;;;;;7.10;99.90;;;;;;4302302;33;42686;-83
2022/03/18 04:54:55;;;;;;;;;;;7.00;99.90;;;;;;4302666;33;44013;-83
2022/03/18 04:57:22;;;;;;;;;;;7.00;99.90;;;;;;4315669;33;43052;-84
2022/03/18 04:59:54;;;;;;;;;;;7.00;99.90;;;;;;4302083;33;44814;-84
2022/03/18 05:02:21;;;;;;;;;;;7.00;99.90;;;;;;4315372;33;43749;-84
2022/03/18 05:04:48;;;;;;;;;;;7.00;99.90;;;;;;4302608;33;44200;-84
2022/03/18 05:07:16;;;;;;;;;;;7.00;99.90;;;;;;4315503;33;44455;-84
2022/03/18 05:09:47;;;;;;;;;;;7.00;99.90;;;;;;4315752;33;45488;-85
2022/03/18 05:12:14;;;;;;;;;;;7.00;99.90;;;;;;4304626;33;44242;-84
2022/03/18 05:14:42;;;;;;;;;;;7.00;99.90;;;;;;4317950;33;42860;-84
2022/03/18 05:17:09;;;;;;;;;;;7.00;99.90;;;;;;4317857;33;43878;-84
2022/03/18 05:19:37;;;;;;;;;;;7.00;99.90;;;;;;4304884;33;44196;-83
2022/03/18 05:22:06;;;;;;;;;;;6.90;99.90;;;;;;4318401;33;43479;-83
2022/03/18 05:24:33;;;;;;;;;;;6.90;99.90;;;;;;4305025;33;43766;-84
2022/03/18 05:27:00;;;;;;;;;;;6.90;99.90;;;;;;4305180;33;46282;-84
2022/03/18 05:29:27;;;;;;;;;;;6.90;99.90;;;;;;4304898;33;43466;-84
2022/03/18 05:31:55;;;;;;;;;;;6.90;99.90;;;;;;4304920;33;43504;-84
2022/03/18 05:34:23;;;;;;;;;;;6.80;99.90;;;;;;4305155;33;43866;-84
2022/03/18 05:36:50;;;;;;;;;;;6.80;99.90;;;;;;4304916;33;43301;-83
2022/03/18 05:39:17;;;;;;;;;;;6.80;99.90;;;;;;4304420;33;44228;-84
2022/03/18 05:41:44;;;;;;;;;;;6.80;99.90;;;;;;4304898;33;45852;-84
2022/03/18 05:44:12;;;;;;;;;;;6.80;99.90;;;;;;4304618;33;44196;-84
2022/03/18 05:46:44;;;;;;;;;;;6.80;99.90;;;;;;4305222;33;43266;-84
2022/03/18 05:49:11;;;;;;;;;;;6.80;99.90;;;;;;4304842;33;44193;-84
2022/03/18 05:51:39;;;;;;;;;;;6.80;99.90;;;;;;4304441;33;43450;-84
2022/03/18 05:54:06;;;;;;;;;;;6.70;99.90;;;;;;4317301;33;44673;-84
2022/03/18 05:59:26;;;;;;;;;;;6.70;99.90;;;;;;4317475;33;43312;-83
2022/03/18 06:01:54;;;;;;;;;;;6.70;99.90;;;;;;4302854;33;20091;-84
2022/03/18 06:04:22;;;;;;;;;;;6.70;99.90;;;;;;4302683;33;43317;-84
2022/03/18 06:06:49;;;;;;;;;;;6.70;99.90;;;;;;4301840;33;43254;-84
2022/03/18 06:12:03;;;;;;;;;;;6.70;99.90;;;;;;4303274;33;43169;-84
2022/03/18 06:14:30;;;;;;;;;;;6.70;99.90;;;;;;4301812;33;43874;-84
2022/03/18 06:16:59;;;;;;;;;;;6.70;99.90;;;;;;4301896;33;45568;-84
2022/03/18 06:19:26;;;;;;;;;;;6.70;99.90;;;;;;4301441;33;42110;-84
2022/03/18 06:21:54;;;;;;;;;;;6.70;99.90;;;;;;4302145;33;43874;-85
2022/03/18 06:24:22;;;;;;;;;;;6.60;99.90;;;;;;4302285;33;43984;-84
2022/03/18 06:26:49;;;;;;;;;;;6.60;99.90;;;;;;4302328;33;44122;-83
2022/03/18 06:29:16;;;;;;;;;;;6.60;99.90;;;;;;4302836;33;43181;-84
2022/03/18 06:31:44;;;;;;;;;;;6.60;99.90;;;;;;4302793;33;43074;-84
2022/03/18 06:34:14;;;;;;;;;;;6.60;99.90;;;;;;4301866;33;44196;-84
2022/03/18 06:36:42;;;;;;;;;;;6.60;99.90;;;;;;4301764;33;43517;-84
2022/03/18 06:39:09;;;;;;;;;;;6.60;99.90;;;;;;4302839;33;43868;-84
2022/03/18 06:41:36;;;;;;;;;;;6.60;99.90;;;;;;4302637;33;44238;-83
2022/03/18 06:44:04;;;;;;;;;;;6.60;99.90;;;;;;4301283;33;43584;-84
2022/03/18 06:46:31;;;;;;;;;;;6.60;99.90;;;;;;4302595;33;43766;-85
2022/03/18 06:48:58;;;;;;;;;;;6.60;99.90;;;;;;4302647;33;44829;-83
2022/03/18 06:51:25;;;;;;;;;;;6.60;99.90;;;;;;4302295;33;44726;-84
2022/03/18 06:53:53;;;;;;;;;;;6.60;99.90;;;;;;4302578;33;45823;-83
2022/03/18 06:56:20;;;;;;;;;;;6.50;99.90;;;;;;4300956;33;45025;-83
2022/03/18 06:58:47;;;;;;;;;;;6.50;99.90;;;;;;4301283;33;43931;-84
2022/03/18 07:01:15;;;;;;;;;;;6.50;99.90;;;;;;4302600;33;46237;-84
2022/03/18 07:03:42;;;;;;;;;;;6.50;99.90;;;;;;4304008;33;43448;-84
2022/03/18 07:06:09;;;;;;;;;;;6.50;99.90;;;;;;4303866;33;44002;-83
2022/03/18 07:08:36;;;;;;;;;;;6.50;99.90;;;;;;4303641;33;43078;-84
2022/03/18 07:11:04;;;;;;;;;;;6.50;99.90;;;;;;4316664;33;43966;-85
2022/03/18 07:13:31;;;;;;;;;;;6.40;99.90;;;;;;4316295;33;42933;-84
2022/03/18 07:18:49;;;;;;;;;;;6.40;99.90;;;;;;4316937;33;43156;-83
2022/03/18 07:21:16;;;;;;;;;;;6.50;99.90;;;;;;4303191;33;42885;-83
2022/03/18 07:23:44;;;;;;;;;;;6.50;99.90;;;;;;4303448;33;44090;-84
2022/03/18 07:26:11;;;;;;;;;;;6.50;99.90;;;;;;4302968;33;43197;-84
2022/03/18 07:28:38;;;;;;;;;;;6.50;99.90;;;;;;4303291;33;43489;-83
2022/03/18 07:31:05;;;;;;;;;;;6.50;99.90;;;;;;4303061;33;43425;-83
2022/03/18 07:33:32;;;;;;;;;;;6.50;99.90;;;;;;4316250;33;45132;-84
2022/03/18 07:35:59;;;;;;;;;;;6.50;99.90;;;;;;4303198;33;43490;-85
2022/03/18 07:38:26;;;;;;;;;;;6.50;99.90;;;;;;4316359;33;45573;-84
2022/03/18 07:40:53;;;;;;;;;;;6.50;99.90;;;;;;4315917;33;42942;-83
2022/03/18 07:43:20;;;;;;;;;;;6.50;99.90;;;;;;4302813;33;42927;-83
2022/03/18 07:45:47;;;;;;;;;;;6.50;99.90;;;;;;4315786;33;44988;-83
2022/03/18 07:48:15;;;;;;;;;;;6.50;99.90;;;;;;4315876;33;43155;-83
2022/03/18 07:50:42;;;;;;;;;;;6.60;99.90;;;;;;4316175;33;45804;-83
2022/03/18 07:53:09;;;;;;;;;;;6.60;99.90;;;;;;4316192;33;44357;-83
2022/03/18 07:55:37;;;;;;;;;;;6.60;99.90;;;;;;4316361;33;45220;-83
2022/03/18 07:58:06;;;;;;;;;;;6.70;99.90;;;;;;4303266;33;43245;-84
2022/03/18 08:00:34;;;;;;;;;;;6.70;99.90;;;;;;4302808;33;43470;-83
2022/03/18 08:03:03;;;;;;;;;;;6.70;99.90;;;;;;4300300;33;45859;-83
2022/03/18 08:05:31;;;;;;;;;;;6.70;99.90;;;;;;4300398;33;43191;-85
2022/03/18 08:07:58;;;;;;;;;;;6.70;99.90;;;;;;4300098;33;44390;-83
2022/03/18 08:10:25;;;;;;;;;;;6.80;99.90;;;;;;4300030;33;43287;-83
2022/03/18 08:12:53;;;;;;;;;;;6.80;99.90;;;;;;4300167;33;43304;-83
2022/03/18 08:15:21;;;;;;;;;;;6.80;99.90;;;;;;4301352;33;43862;-83
2022/03/18 08:17:52;;;;;;;;;;;6.80;99.90;;;;;;4300272;33;45025;-83
2022/03/18 08:20:20;;;;;;;;;;;6.80;99.90;;;;;;4301268;33;42932;-84
2022/03/18 08:22:49;;;;;;;;;;;6.90;99.90;;;;;;4301020;33;45600;-83
2022/03/18 08:25:16;;;;;;;;;;;6.90;99.90;;;;;;4300068;33;44042;-84
2022/03/18 08:27:43;;;;;;;;;;;6.90;99.90;;;;;;4300420;33;44256;-83
2022/03/18 08:30:14;;;;;;;;;;;6.90;99.90;;;;;;4301300;33;42963;-83
2022/03/18 08:32:41;;;;;;;;;;;6.90;99.90;;;;;;4300373;33;44193;-83
2022/03/18 08:35:09;;;;;;;;;;;7.00;99.90;;;;;;4299781;33;43203;-83
2022/03/18 08:40:40;;;;;;;;;;;7.00;99.90;;;;;;4301542;33;43934;-83
2022/03/18 08:43:11;;;;;;;;;;;7.00;99.90;;;;;;4300338;33;43863;-82
2022/03/18 08:45:38;;;;;;;;;;;7.10;99.90;;;;;;4301822;33;45755;-83
2022/03/18 08:48:06;;;;;;;;;;;7.10;99.90;;;;;;4303784;33;46391;-83
2022/03/18 08:50:34;;;;;;;;;;;7.10;99.90;;;;;;4303873;33;42276;-83
2022/03/18 08:53:09;;;;;;;;;;;7.10;99.90;;;;;;4303153;33;45444;-83
2022/03/18 08:55:37;;;;;;;;;;;7.10;99.90;;;;;;4303008;33;45162;-83
2022/03/18 08:58:05;;;;;;;;;;;7.10;99.90;;;;;;4303154;33;43846;-83
2022/03/18 09:00:32;;;;;;;;;;;7.20;99.90;;;;;;4303718;33;43202;-82
2022/03/18 09:02:59;;;;;;;;;;;7.10;99.90;;;;;;4303034;33;26188;-83
2022/03/18 09:05:26;;;;;;;;;;;7.20;99.90;;;;;;4302742;33;42845;-82
2022/03/18 09:07:53;;;;;;;;;;;7.20;99.90;;;;;;4303816;33;43869;-82
2022/03/18 09:10:21;;;;;;;;;;;7.20;99.90;;;;;;4302631;33;43275;-83
2022/03/18 09:12:49;;;;;;;;;;;7.20;99.90;;;;;;4303925;33;45966;-82
2022/03/18 09:15:16;;;;;;;;;;;7.30;99.90;;;;;;4302486;33;44031;-82
2022/03/18 09:17:43;;;;;;;;;;;7.30;99.90;;;;;;4302748;33;44155;-82
2022/03/18 09:20:10;;;;;;;;;;;7.20;99.90;;;;;;4302301;33;44624;-83
2022/03/18 09:22:37;;;;;;;;;;;7.30;99.90;;;;;;4303411;33;42778;-81
2022/03/18 09:25:05;;;;;;;;;;;7.30;99.90;;;;;;4302620;33;43451;-82
2022/03/18 09:27:32;;;;;;;;;;;7.30;99.90;;;;;;4303502;33;43219;-82
2022/03/18 09:30:04;;;;;;;;;;;7.40;99.90;;;;;;4302505;33;44141;-81
2022/03/18 09:32:31;;;;;;;;;;;7.30;99.90;;;;;;4302249;33;43898;-81
2022/03/18 09:34:59;;;;;;;;;;;7.40;99.90;;;;;;4303205;33;42345;-81
2022/03/18 09:37:29;;;;;;;;;;;7.40;99.90;;;;;;4302576;33;43880;-82
2022/03/18 09:39:56;;;;;;;;;;;7.40;99.90;;;;;;4302049;33;44054;-81
2022/03/18 09:42:57;;;;;;;;;;;7.40;99.90;;;;;;4303630;33;45614;-81
2022/03/18 09:45:25;;;;;;;;;;;7.40;99.90;;;;;;4302244;33;44634;-81
2022/03/18 09:47:53;;;;;;;;;;;7.40;99.90;;;;;;4302232;33;42978;-81
2022/03/18 09:50:20;;;;;;;;;;;7.50;99.90;;;;;;4303312;33;44420;-82
2022/03/18 09:52:47;;;;;;;;;;;7.50;99.90;;;;;;4302267;33;42665;-82
2022/03/18 09:55:14;;;;;;;;;;;7.50;99.90;;;;;;4302034;33;44220;-82
2022/03/18 09:57:41;;;;;;;;;;;7.50;99.90;;;;;;4301792;33;44443;-83
2022/03/18 10:00:09;;;;;;;;;;;7.60;99.90;;;;;;4302073;33;44234;-82
2022/03/18 10:02:36;;;;;;;;;;;7.60;99.90;;;;;;4301582;33;44955;-82
2022/03/18 10:05:08;;;;;;;;;;;7.60;99.90;;;;;;4301849;33;43990;-83
2022/03/18 10:07:35;;;;;;;;;;;7.60;99.90;;;;;;4301897;33;42572;-83
2022/03/18 10:10:08;;;;;;;;;;;7.60;99.90;;;;;;4302803;33;44104;-82
2022/03/18 10:12:35;;;;;;;;;;;7.70;99.90;;;;;;4302213;33;45434;-85
2022/03/18 10:15:14;;;;;;;;;;;7.70;99.90;;;;;;4302660;33;43774;-85
2022/03/18 10:17:45;;;;;;;;;;;7.70;99.90;;;;;;4301999;33;45201;-85
2022/03/18 10:20:23;;;;;;;;;;;7.70;99.90;;;;;;4301794;33;44284;-83
2022/03/18 10:22:55;;;;;;;;;;;7.70;99.90;;;;;;4302505;33;43447;-83
2022/03/18 10:25:42;;;;;;;;;;;7.70;99.90;;;;;;4302041;33;43965;-83
2022/03/18 10:28:10;;;;;;;;;;;7.80;99.90;;;;;;4301313;33;42738;-83
2022/03/18 10:30:37;;;;;;;;;;;7.80;99.90;;;;;;4302502;33;44464;-83
2022/03/18 10:33:10;;;;;;;;;;;7.80;99.90;;;;;;4301906;33;42342;-83
2022/03/18 10:38:27;;;;;;;;;;;7.80;99.90;;;;;;4302692;33;44129;-84
2022/03/18 10:40:55;;;;;;;;;;;7.80;99.90;;;;;;4301658;33;45272;-84
2022/03/18 10:43:22;;;;;;;;;;;7.90;99.90;;;;;;4301493;33;42733;-84
2022/03/18 10:46:05;;;;;;;;;;;7.90;99.90;;;;;;4302413;33;44114;-83
2022/03/18 10:48:33;;;;;;;;;;;7.90;99.90;;;;;;4302637;33;43545;-84
2022/03/18 10:51:01;;;;;;;;;;;7.90;99.90;;;;;;4302555;33;43455;-83
2022/03/18 10:53:30;;;;;;;;;;;8.00;99.90;;;;;;4301168;33;43020;-83
2022/03/18 10:55:59;;;;;;;;;;;8.00;99.90;;;;;;4300856;33;45538;-83
2022/03/18 10:58:29;;;;;;;;;;;8.00;99.80;;;;;;4301026;33;43845;-84
2022/03/18 11:00:59;;;;;;;;;;;8.00;99.60;;;;;;4301354;33;45079;-84
2022/03/18 11:03:26;;;;;;;;;;;8.10;99.20;;;;;;4300761;33;43021;-85
2022/03/18 11:05:54;;;;;;;;;;;8.10;99.10;;;;;;4301417;33;44611;-85
2022/03/18 11:08:22;;;;;;;;;;;8.10;99.50;;;;;;4301588;33;42386;-84
2022/03/18 11:11:07;;;;;;;;;;;8.10;99.30;;;;;;4300847;33;43458;-83
2022/03/18 11:13:56;;;;;;;;;;;8.10;99.60;;;;;;4300771;33;44122;-83
2022/03/18 11:16:26;;;;;;;;;;;8.20;99.90;;;;;;4295142;33;43740;-84
2022/03/18 11:18:53;;;;;;;;;;;8.20;99.90;;;;;;4301729;33;41955;-83
2022/03/18 11:21:21;;;;;;;;;;;8.30;99.90;;;;;;4300650;33;44206;-84
2022/03/18 11:23:49;;;;;;;;;;;8.30;99.30;;;;;;4301967;33;44220;-83
2022/03/18 11:26:17;;;;;;;;;;;8.30;99.00;;;;;;4301568;33;43190;-84
2022/03/18 11:28:45;;;;;;;;;;;8.30;99.10;;;;;;4300412;33;45907;-84
2022/03/18 11:31:17;;;;;;;;;;;8.40;98.80;;;;;;4300616;33;44193;-84
2022/03/18 11:34:03;;;;;;;;;;;8.40;98.80;;;;;;4300661;33;43524;-85
2022/03/18 11:36:30;;;;;;;;;;;8.40;98.90;;;;;;4301024;33;43268;-84
2022/03/18 11:38:59;;;;;;;;;;;8.50;99.00;;;;;;4300879;33;44307;-85
2022/03/18 11:41:31;;;;;;;;;;;8.50;98.70;;;;;;4300321;33;45915;-83
2022/03/18 11:43:58;;;;;;;;;;;8.50;98.70;;;;;;4302004;33;43218;-84
2022/03/18 11:46:27;;;;;;;;;;;8.50;98.70;;;;;;4301585;33;43757;-84
2022/03/18 11:49:08;;;;;;;;;;;8.50;98.50;;;;;;4300761;33;43947;-84
2022/03/18 11:51:36;;;;;;;;;;;8.60;98.50;;;;;;4301775;33;44586;-84
2022/03/18 11:54:12;;;;;;;;;;;8.60;98.10;;;;;;4301920;33;46025;-84
2022/03/18 11:56:39;;;;;;;;;;;8.70;98.20;;;;;;4301211;33;44239;-84
2022/03/18 11:59:25;;;;;;;;;;;8.70;98.40;;;;;;4300739;33;43771;-83
2022/03/18 12:02:02;;;;;;;;;;;8.70;98.60;;;;;;4299981;33;43919;-85
2022/03/18 12:04:32;;;;;;;;;;;8.70;97.90;;;;;;4300617;33;45336;-83
2022/03/18 12:07:12;;;;;;;;;;;8.80;97.70;;;;;;4301206;33;19990;-84
2022/03/18 12:09:58;;;;;;;;;;;8.80;97.60;;;;;;4300489;33;44940;-84
2022/03/18 12:12:38;;;;;;;;;;;8.90;97.10;;;;;;4300131;33;43911;-84
2022/03/18 12:15:18;;;;;;;;;;;8.90;97.30;;;;;;4301494;33;43882;-84
2022/03/18 12:17:49;;;;;;;;;;;8.90;96.80;;;;;;4301200;33;44169;-84
2022/03/18 12:20:21;;;;;;;;;;;9.00;96.80;;;;;;4300349;33;43163;-84
2022/03/18 12:22:50;;;;;;;;;;;9.00;96.60;;;;;;4300406;33;45848;-85
2022/03/18 12:25:17;;;;;;;;;;;9.00;96.60;;;;;;4301256;33;44184;-84
2022/03/18 12:27:44;;;;;;;;;;;9.10;96.50;;;;;;4300365;33;42702;-84
2022/03/18 12:30:13;;;;;;;;;;;9.10;96.10;;;;;;4300252;33;42762;-85
2022/03/18 12:32:46;;;;;;;;;;;9.20;96.10;;;;;;4300198;33;42760;-84
2022/03/18 12:35:13;;;;;;;;;;;9.20;96.00;;;;;;4301455;33;45825;-86
2022/03/18 12:37:41;;;;;;;;;;;9.20;95.70;;;;;;4302240;33;20002;-85
2022/03/18 12:40:12;;;;;;;;;;;9.20;95.70;;;;;;4299807;33;42688;-85
2022/03/18 12:42:56;;;;;;;;;;;9.30;95.40;;;;;;4300047;33;43892;-85
2022/03/18 12:45:29;;;;;;;;;;;9.30;95.70;;;;;;4299815;33;44023;-84
2022/03/18 12:47:57;;;;;;;;;;;9.40;96.10;;;;;;4300140;33;43857;-84
2022/03/18 12:50:28;;;;;;;;;;;9.40;96.40;;;;;;4299748;33;43046;-85
2022/03/18 12:52:56;;;;;;;;;;;9.40;96.60;;;;;;4300207;33;43944;-84
2022/03/18 12:55:25;;;;;;;;;;;9.50;96.30;;;;;;4300804;33;44347;-85
2022/03/18 12:57:52;;;;;;;;;;;9.50;96.20;;;;;;4300363;33;44247;-85
2022/03/18 13:00:20;;;;;;;;;;;9.50;96.10;;;;;;4300077;33;43319;-85
2022/03/18 13:03:13;;;;;;;;;;;9.60;95.90;;;;;;4312452;33;44129;-85
2022/03/18 13:05:40;;;;;;;;;;;9.60;95.50;;;;;;4302564;33;43164;-84
2022/03/18 13:08:07;;;;;;;;;;;9.70;95.40;;;;;;4303077;33;20387;-85
2022/03/18 13:10:35;;;;;;;;;;;9.70;95.80;;;;;;4315170;33;44191;-85
2022/03/18 13:13:06;;;;;;;;;;;9.70;95.30;;;;;;4302533;33;44292;-85
2022/03/18 13:15:34;;;;;;;;;;;9.70;95.00;;;;;;4315818;33;41529;-85
2022/03/18 13:18:12;;;;;;;;;;;9.80;95.20;;;;;;4302304;33;43180;-85
2022/03/18 13:20:42;;;;;;;;;;;9.80;94.80;;;;;;4302846;33;44037;-86
2022/03/18 13:23:10;;;;;;;;;;;9.80;94.90;;;;;;4302494;33;44947;-84
2022/03/18 13:25:37;;;;;;;;;;;9.90;94.80;;;;;;4302396;33;44112;-85
2022/03/18 13:28:04;;;;;;;;;;;10.00;94.50;;;;;;4302088;33;43898;-85
2022/03/18 13:33:17;;;;;;;;;;;10.00;94.40;;;;;;4317744;33;45202;-85
2022/03/18 13:35:46;;;;;;;;;;;10.10;94.40;;;;;;4304910;33;45656;-85
2022/03/18 13:38:14;;;;;;;;;;;10.10;94.40;;;;;;4318907;33;20348;-85
2022/03/18 13:40:55;;;;;;;;;;;10.20;94.50;;;;;;4317610;33;45846;-85
2022/03/18 13:43:27;;;;;;;;;;;10.20;94.10;;;;;;4304409;33;43157;-85
2022/03/18 13:46:12;;;;;;;;;;;10.20;94.50;;;;;;4305251;33;44035;-85
2022/03/18 13:48:40;;;;;;;;;;;10.20;94.40;;;;;;4304837;33;44335;-85
2022/03/18 13:51:07;;;;;;;;;;;10.30;94.10;;;;;;4304713;33;42209;-85
2022/03/18 13:53:35;;;;;;;;;;;10.30;94.10;;;;;;4317442;33;42973;-85
2022/03/18 13:56:21;;;;;;;;;;;10.40;94.10;;;;;;4317932;33;43450;-85
2022/03/18 13:58:48;;;;;;;;;;;10.40;93.60;;;;;;4317871;33;44966;-85
2022/03/18 14:01:16;;;;;;;;;;;10.40;93.70;;;;;;4304369;33;45742;-86
2022/03/18 14:03:51;;;;;;;;;;;10.50;93.30;;;;;;4305034;33;44335;-85
2022/03/18 14:06:18;;;;;;;;;;;10.50;93.70;;;;;;4317456;33;43289;-85
2022/03/18 14:08:46;;;;;;;;;;;10.60;93.10;;;;;;4318190;33;20021;-86
2022/03/18 14:14:21;;;;;;;;;;;10.60;92.80;;;;;;4317472;33;42607;-85
2022/03/18 14:17:24;;;;;;;;;;;10.70;92.30;;;;;;4303939;33;44531;-85
2022/03/18 14:19:57;;;;;;;;;;;10.70;92.00;;;;;;4243123;33;44620;-85
2022/03/18 14:22:27;;;;;;;;;;;10.80;92.00;;;;;;4295358;33;43359;-86
2022/03/18 14:24:56;;;;;;;;;;;10.80;92.20;;;;;;4317201;33;41948;-85
2022/03/18 14:27:23;;;;;;;;;;;10.80;92.20;;;;;;4317227;33;45052;-86
2022/03/18 14:29:50;;;;;;;;;;;10.80;91.90;;;;;;4304169;33;43705;-85
2022/03/18 14:32:18;;;;;;;;;;;10.90;92.00;;;;;;4303864;33;43821;-85
2022/03/18 14:34:48;;;;;;;;;;;10.90;91.50;;;;;;4316857;33;45787;-85
2022/03/18 14:37:17;;;;;;;;;;;10.90;91.70;;;;;;4317513;33;43933;-85
2022/03/18 14:39:44;;;;;;;;;;;11.00;91.50;;;;;;4317695;33;20427;-85
2022/03/18 14:42:12;;;;;;;;;;;11.00;91.00;;;;;;4317129;33;43849;-85
2022/03/18 14:44:40;;;;;;;;;;;11.00;90.70;;;;;;4303209;33;45154;-85
2022/03/18 14:47:08;;;;;;;;;;;11.10;90.60;;;;;;4304051;33;45678;-86
2022/03/18 14:49:35;;;;;;;;;;;11.10;90.60;;;;;;4317233;33;46306;-86
2022/03/18 14:52:03;;;;;;;;;;;11.10;89.80;;;;;;4316960;33;43339;-85
2022/03/18 14:57:18;;;;;;;;;;;11.20;90.00;;;;;;4317131;33;43210;-85
2022/03/18 14:59:48;;;;;;;;;;;11.20;90.00;;;;;;4303335;33;44176;-85
2022/03/18 15:02:15;;;;;;;;;;;11.30;90.10;;;;;;4303138;33;44747;-85
2022/03/18 15:04:43;;;;;;;;;;;11.30;90.40;;;;;;4316412;33;42671;-85
2022/03/18 15:07:10;;;;;;;;;;;11.30;90.40;;;;;;4303790;33;45701;-85
2022/03/18 15:09:37;;;;;;;;;;;11.40;90.50;;;;;;4316485;33;44208;-85